createdAt,value
2019-03-03T00:02:12.966Z,40.37
2019-03-03T00:04:45.333Z,35.33
2019-03-03T00:07:18.115Z,41.13
2019-03-03T00:09:50.592Z,30.93
2019-03-03T00:12:22.965Z,38.93
2019-03-03T00:14:55.335Z,54.17
2019-03-03T00:17:28.018Z,42.57
2019-03-03T00:20:00.398Z,46.17
2019-03-03T00:22:32.766Z,44.33
2019-03-03T00:25:05.745Z,57.33
2019-03-03T00:27:38.121Z,54.77
2019-03-03T00:30:21.956Z,47.10
2019-03-03T00:32:54.331Z,39.50
2019-03-03T00:35:26.807Z,41.93
2019-03-03T00:38:06.552Z,44.27
2019-03-03T00:40:56.012Z,32.43
2019-03-03T00:43:28.086Z,40.53
2019-03-03T00:46:09.164Z,42.17
2019-03-03T00:48:59.253Z,39.70
2019-03-03T00:51:36.232Z,45.03
2019-03-03T00:54:10.452Z,38.50
2019-03-03T00:57:02.785Z,40.77
2019-03-03T00:59:39.661Z,46.23
2019-03-03T01:02:11.726Z,37.47
2019-03-03T01:04:43.794Z,37.63
2019-03-03T01:07:20.668Z,37.93
2019-03-03T01:09:54.198Z,34.67
2019-03-03T01:12:40.977Z,41.60
2019-03-03T01:15:18.478Z,35.17
2019-03-03T01:18:08.969Z,42.60
2019-03-03T01:20:54.858Z,33.00
2019-03-03T01:23:31.437Z,27.83
2019-03-03T01:26:04.002Z,32.17
2019-03-03T01:28:36.379Z,34.20
2019-03-03T01:31:08.856Z,32.47
2019-03-03T01:33:41.219Z,34.63
2019-03-03T01:36:13.905Z,35.40
2019-03-03T01:38:46.068Z,39.13
2019-03-03T01:41:18.438Z,31.47
2019-03-03T01:43:50.912Z,36.47
2019-03-03T01:46:23.295Z,31.83
2019-03-03T01:48:55.221Z,44.47
2019-03-03T01:51:27.613Z,33.10
2019-03-03T01:54:00.308Z,36.03
2019-03-03T01:56:32.784Z,42.17
2019-03-03T01:59:05.150Z,44.27
2019-03-03T02:01:37.625Z,41.33
2019-03-03T02:04:10.096Z,46.73
2019-03-03T02:06:42.568Z,43.43
2019-03-03T02:09:14.953Z,39.63
2019-03-03T02:11:47.312Z,44.13
2019-03-03T02:20:20.253Z,42.37
2019-03-03T02:22:57.918Z,40.07
2019-03-03T02:26:06.723Z,39.70
2019-03-03T02:29:27.161Z,34.73
2019-03-03T02:32:11.508Z,43.33
2019-03-03T02:35:08.407Z,45.07
2019-03-03T02:37:45.454Z,36.70
2019-03-03T02:40:25.949Z,32.43
2019-03-03T02:50:23.636Z,42.53
2019-03-03T02:59:18.201Z,42.40
2019-03-03T03:11:51.036Z,48.90
2019-03-03T03:24:23.258Z,42.77
2019-03-03T03:27:00.678Z,37.63
2019-03-03T03:33:06.546Z,33.40
2019-03-03T03:35:56.788Z,35.17
2019-03-03T03:41:47.522Z,31.60
2019-03-03T03:44:28.160Z,35.60
2019-03-03T03:47:15.966Z,30.13
2019-03-03T03:50:03.952Z,44.23
2019-03-03T03:52:51.371Z,40.13
2019-03-03T03:55:43.949Z,44.20
2019-03-03T03:58:41.067Z,49.73
2019-03-03T04:01:23.318Z,43.03
2019-03-03T04:04:03.381Z,43.87
2019-03-03T04:06:57.771Z,39.80
2019-03-03T04:09:38.318Z,41.83
2019-03-03T04:12:34.555Z,37.20
2019-03-03T04:15:20.092Z,37.23
2019-03-03T04:18:07.874Z,44.70
2019-03-03T04:21:11.064Z,42.03
2019-03-03T04:24:19.975Z,42.43
2019-03-03T04:27:12.050Z,41.30
2019-03-03T04:32:45.478Z,40.07
2019-03-03T04:35:36.768Z,38.00
2019-03-03T04:38:28.790Z,39.40
2019-03-03T04:41:09.275Z,43.70
2019-03-03T04:47:08.016Z,47.43
2019-03-03T04:49:52.048Z,40.40
2019-03-03T04:56:06.041Z,37.03
2019-03-03T05:02:25.576Z,36.07
2019-03-03T05:05:10.280Z,40.93
2019-03-03T05:08:10.639Z,29.00
2019-03-03T05:11:00.674Z,46.43
2019-03-03T05:13:53.210Z,34.60
2019-03-03T05:16:32.984Z,40.33
2019-03-03T05:19:24.775Z,38.37
2019-03-03T05:22:06.820Z,36.23
2019-03-03T05:24:42.545Z,39.93
2019-03-03T05:27:19.552Z,35.40
2019-03-03T05:29:53.677Z,39.23
2019-03-03T05:32:33.000Z,32.80
2019-03-03T05:35:12.936Z,30.33
2019-03-03T05:37:45.473Z,40.40
2019-03-03T05:40:24.751Z,41.03
2019-03-03T05:43:03.573Z,42.10
2019-03-03T05:45:56.163Z,34.70
2019-03-03T05:48:40.509Z,34.90
2019-03-03T05:51:13.436Z,41.87
2019-03-03T05:53:52.111Z,33.27
2019-03-03T05:56:26.901Z,30.33
2019-03-03T05:58:59.713Z,44.67
2019-03-03T06:01:36.701Z,42.93
2019-03-03T06:05:00.252Z,29.20
2019-03-03T06:07:31.737Z,41.87
2019-03-03T06:10:21.064Z,45.13
2019-03-03T06:25:46.968Z,35.63
2019-03-03T06:28:36.110Z,36.73
2019-03-03T06:31:09.994Z,43.17
2019-03-03T07:35:42.268Z,41.20
2019-03-03T08:00:09.633Z,34.40
2019-03-03T08:03:03.028Z,36.67
2019-03-03T08:05:57.503Z,34.63
2019-03-03T08:08:55.669Z,38.67
2019-03-03T08:14:43.967Z,45.43
2019-03-03T08:17:43.884Z,31.30
2019-03-03T08:20:35.499Z,37.87
2019-03-03T08:23:41.852Z,27.13
2019-03-03T08:26:07.066Z,31.03
2019-03-03T08:28:44.061Z,29.50
2019-03-03T08:31:18.750Z,38.57
2019-03-03T08:33:57.166Z,34.27
2019-03-03T08:36:43.321Z,27.13
2019-03-03T08:39:24.589Z,34.20
2019-03-03T08:42:02.784Z,24.00
2019-03-03T08:44:40.631Z,37.80
2019-03-03T08:47:20.670Z,27.93
2019-03-03T08:49:58.541Z,27.07
2019-03-03T08:52:34.896Z,28.60
2019-03-03T08:55:24.062Z,32.53
2019-03-03T08:58:11.791Z,23.37
2019-03-03T09:01:00.849Z,22.40
2019-03-03T09:03:37.512Z,24.77
2019-03-03T09:06:18.649Z,23.73
2019-03-03T09:08:58.287Z,31.00
2019-03-03T09:11:44.213Z,26.53
2019-03-03T09:14:23.934Z,22.50
2019-03-03T09:17:00.435Z,23.03
2019-03-03T09:19:47.635Z,19.70
2019-03-03T09:22:30.884Z,21.00
2019-03-03T09:25:11.914Z,23.13
2019-03-03T09:28:05.117Z,27.30
2019-03-03T09:30:47.840Z,20.23
2019-03-03T09:33:20.416Z,23.10
2019-03-03T09:36:05.957Z,17.00
2019-03-03T09:38:50.027Z,19.47
2019-03-03T09:41:34.773Z,15.67
2019-03-03T09:44:20.827Z,17.00
2019-03-03T09:47:00.017Z,13.87
2019-03-03T09:49:58.934Z,11.73
2019-03-03T09:52:49.054Z,17.30
2019-03-03T09:55:32.004Z,17.57
2019-03-03T09:58:09.916Z,18.10
2019-03-03T10:00:45.200Z,19.23
2019-03-03T10:03:32.332Z,15.27
2019-03-03T10:06:23.058Z,14.77
2019-03-03T10:09:42.999Z,14.10
2019-03-03T10:12:29.406Z,15.87
2019-03-03T10:18:51.854Z,13.93
2019-03-03T10:21:50.084Z,13.10
2019-03-03T10:24:30.537Z,10.83
2019-03-03T10:30:35.710Z,10.53
2019-03-03T10:33:18.420Z,11.33
2019-03-03T10:38:54.612Z,16.40
2019-03-03T10:41:39.306Z,14.20
2019-03-03T10:44:27.099Z,12.67
2019-03-03T10:47:15.075Z,11.30
2019-03-03T10:49:55.992Z,9.37
2019-03-03T10:52:43.770Z,10.77
2019-03-03T10:55:49.968Z,9.43
2019-03-03T10:58:29.975Z,11.60
2019-03-03T11:01:09.134Z,15.23
2019-03-03T11:03:55.839Z,9.77
2019-03-03T11:06:34.232Z,11.47
2019-03-03T11:09:19.913Z,11.67
2019-03-03T11:12:14.640Z,11.20
2019-03-03T11:15:18.193Z,8.70
2019-03-03T11:18:07.331Z,12.77
2019-03-03T11:24:18.254Z,9.87
2019-03-03T11:27:15.850Z,11.70
2019-03-03T11:34:15.152Z,7.33
2019-03-03T11:47:34.716Z,13.70
2019-03-03T11:54:45.545Z,11.47
2019-03-03T11:57:54.125Z,9.63
2019-03-03T12:11:16.043Z,8.33
2019-03-03T13:30:33.476Z,11.80
2019-03-03T13:33:09.182Z,11.90
2019-03-03T13:36:00.793Z,9.47
2019-03-03T13:38:36.950Z,9.47
2019-03-03T13:41:19.033Z,9.67
2019-03-03T14:07:04.284Z,12.53
2019-03-03T14:09:40.458Z,12.67
2019-03-03T14:16:01.275Z,11.60
2019-03-03T14:51:11.835Z,12.30
2019-03-03T14:54:06.000Z,12.30
2019-03-03T14:56:50.369Z,10.27
2019-03-03T16:11:16.450Z,9.83
2019-03-03T16:16:58.588Z,12.00
2019-03-03T16:19:44.759Z,11.37
2019-03-03T16:37:06.031Z,9.73
2019-03-03T17:20:45.959Z,11.87
2019-03-03T17:23:31.534Z,9.23
2019-03-03T17:26:12.516Z,9.83
2019-03-03T17:28:52.132Z,7.87
2019-03-03T17:31:30.886Z,13.80
2019-03-03T17:34:23.847Z,10.07
2019-03-03T17:37:11.523Z,18.23
2019-03-03T18:58:57.222Z,14.07
2019-03-03T19:09:45.495Z,9.83
2019-03-03T19:12:33.637Z,12.10
2019-03-03T19:15:24.224Z,11.97
2019-03-03T19:37:33.939Z,13.43
2019-03-03T20:06:30.278Z,11.17
2019-03-03T20:09:09.509Z,10.40
2019-03-03T20:14:56.923Z,13.53
2019-03-03T20:20:11.210Z,14.70
2019-03-03T20:22:54.838Z,11.03
2019-03-03T20:25:30.956Z,20.93
2019-03-03T20:28:11.308Z,19.40
2019-03-03T20:30:49.819Z,11.80
2019-03-03T20:33:26.629Z,13.67
2019-03-03T20:36:01.043Z,9.83
2019-03-03T20:38:38.796Z,13.00
2019-03-03T20:41:16.079Z,10.73
2019-03-03T20:43:54.884Z,10.53
2019-03-03T20:46:30.042Z,8.43
2019-03-03T20:49:06.189Z,12.87
2019-03-03T20:51:52.703Z,8.57
2019-03-03T20:54:27.322Z,9.97
2019-03-03T20:57:00.144Z,10.83
2019-03-03T20:59:34.885Z,6.70
2019-03-03T21:02:09.872Z,10.27
2019-03-03T21:04:47.896Z,11.27
2019-03-03T21:30:23.732Z,8.10
2019-03-03T21:38:44.146Z,8.27
2019-03-03T21:44:24.931Z,10.00
2019-03-03T21:47:09.533Z,9.77
2019-03-03T21:49:58.363Z,12.90
2019-03-03T21:52:32.714Z,11.87
2019-03-03T21:55:12.230Z,10.73
2019-03-03T21:57:48.631Z,8.27
2019-03-03T22:00:41.274Z,13.30
2019-03-03T22:03:16.202Z,11.23
2019-03-03T22:05:50.175Z,9.47
2019-03-03T22:08:22.125Z,11.47
2019-03-03T22:10:54.627Z,8.40
2019-03-03T22:13:26.979Z,8.73
2019-03-03T22:15:59.451Z,9.23
2019-03-03T22:18:33.594Z,14.37
2019-03-03T22:21:07.290Z,11.97
2019-03-03T22:23:40.373Z,10.70
2019-03-03T22:26:12.859Z,8.70
2019-03-03T22:28:45.357Z,12.37
2019-03-03T22:31:18.195Z,12.63
2019-03-03T22:33:50.566Z,10.10
2019-03-03T22:36:22.959Z,13.30
2019-03-03T22:38:56.462Z,12.87
2019-03-03T22:41:29.051Z,10.03
2019-03-03T22:44:01.681Z,9.17
2019-03-03T22:46:34.218Z,10.20
2019-03-03T22:49:07.372Z,8.73
2019-03-03T22:51:39.832Z,8.03
2019-03-03T22:54:12.223Z,9.27
2019-03-03T22:56:45.353Z,9.87
2019-03-03T22:59:17.677Z,10.47
2019-03-03T23:01:49.870Z,7.97
2019-03-03T23:04:52.026Z,9.27
2019-03-03T23:07:35.055Z,10.23
2019-03-03T23:10:26.838Z,8.70
2019-03-03T23:13:21.982Z,8.03
2019-03-03T23:15:59.037Z,10.83
2019-03-03T23:18:57.003Z,9.00
2019-03-03T23:21:57.582Z,11.83
2019-03-03T23:24:49.421Z,9.17
2019-03-03T23:27:21.740Z,10.87
2019-03-03T23:29:54.452Z,9.23
2019-03-03T23:32:26.898Z,6.40
2019-03-03T23:35:00.404Z,10.67
2019-03-03T23:37:32.721Z,11.53
2019-03-03T23:40:06.842Z,8.37
2019-03-03T23:42:39.142Z,6.03
2019-03-03T23:45:12.838Z,8.60
2019-03-03T23:47:45.418Z,10.43
2019-03-03T23:50:17.795Z,10.33
2019-03-03T23:52:50.162Z,8.43
2019-03-03T23:55:22.540Z,7.00
2019-03-03T23:57:55.109Z,8.87
